createdAt,value
2018-07-16T00:01:01.541Z,5.00
2018-07-16T00:03:30.233Z,5.10
2018-07-16T00:05:58.603Z,5.47
2018-07-16T00:08:26.959Z,5.33
2018-07-16T00:10:55.384Z,5.70
2018-07-16T00:13:23.759Z,5.50
2018-07-16T00:15:52.360Z,5.73
2018-07-16T00:18:20.717Z,5.27
2018-07-16T00:20:49.115Z,6.30
2018-07-16T00:23:17.515Z,6.37
2018-07-16T00:25:45.949Z,6.40
2018-07-16T00:28:14.354Z,5.87
2018-07-16T00:30:42.711Z,6.33
2018-07-16T00:33:11.073Z,7.13
2018-07-16T00:35:39.463Z,5.93
2018-07-16T00:38:07.834Z,5.93
2018-07-16T00:40:36.198Z,6.63
2018-07-16T00:43:04.585Z,6.83
2018-07-16T00:45:32.954Z,6.50
2018-07-16T00:48:01.339Z,6.23
2018-07-16T00:50:29.718Z,6.20
2018-07-16T00:52:58.096Z,6.50
2018-07-16T00:55:26.498Z,6.80
2018-07-16T00:57:54.865Z,7.07
2018-07-16T01:00:23.245Z,7.13
2018-07-16T01:02:51.643Z,7.13
2018-07-16T01:05:20.006Z,7.10
2018-07-16T01:07:48.347Z,7.87
2018-07-16T01:10:16.841Z,6.60
2018-07-16T01:12:45.211Z,6.93
2018-07-16T01:15:13.530Z,7.13
2018-07-16T01:17:42.167Z,7.67
2018-07-16T01:20:10.582Z,7.07
2018-07-16T01:22:38.956Z,7.20
2018-07-16T01:25:07.315Z,7.33
2018-07-16T01:27:35.727Z,7.30
2018-07-16T01:30:04.217Z,7.40
2018-07-16T01:32:32.567Z,7.43
2018-07-16T01:35:01.077Z,7.77
2018-07-16T01:37:29.492Z,7.23
2018-07-16T01:39:57.806Z,6.97
2018-07-16T01:42:26.182Z,6.80
2018-07-16T01:44:54.581Z,7.03
2018-07-16T01:47:22.932Z,7.73
2018-07-16T01:49:51.307Z,6.93
2018-07-16T01:52:20.228Z,7.10
2018-07-16T01:54:48.607Z,7.37
2018-07-16T01:57:16.959Z,6.73
2018-07-16T01:59:45.361Z,7.27
2018-07-16T02:02:14.252Z,6.80
2018-07-16T02:04:42.603Z,6.57
2018-07-16T02:07:10.960Z,6.30
2018-07-16T02:09:39.319Z,6.90
2018-07-16T02:12:07.656Z,6.83
2018-07-16T02:14:36.107Z,6.80
2018-07-16T02:17:04.575Z,6.77
2018-07-16T02:19:32.928Z,7.20
2018-07-16T02:22:01.328Z,6.60
2018-07-16T02:24:29.712Z,7.03
2018-07-16T02:26:58.124Z,6.97
2018-07-16T02:29:26.471Z,7.07
2018-07-16T02:31:54.943Z,6.80
2018-07-16T02:34:23.351Z,6.80
2018-07-16T02:36:51.719Z,5.83
2018-07-16T02:39:20.108Z,6.03
2018-07-16T02:41:48.445Z,6.70
2018-07-16T02:44:16.819Z,6.30
2018-07-16T02:46:45.200Z,6.27
2018-07-16T02:49:13.887Z,6.57
2018-07-16T02:51:42.249Z,6.00
2018-07-16T02:54:10.545Z,6.10
2018-07-16T02:56:38.903Z,6.37
2018-07-16T02:59:07.287Z,6.07
2018-07-16T03:01:35.629Z,6.07
2018-07-16T03:04:04.003Z,6.73
2018-07-16T03:06:32.641Z,6.97
2018-07-16T03:09:01.003Z,6.53
2018-07-16T03:11:29.384Z,6.57
2018-07-16T03:13:57.771Z,6.77
2018-07-16T03:16:26.138Z,6.67
2018-07-16T03:18:54.529Z,7.87
2018-07-16T03:21:22.900Z,6.50
2018-07-16T03:23:51.612Z,6.70
2018-07-16T03:26:20.028Z,6.63
2018-07-16T03:28:48.399Z,6.63
2018-07-16T03:31:16.797Z,6.83
2018-07-16T03:33:45.207Z,7.53
2018-07-16T03:36:13.651Z,7.90
2018-07-16T03:38:41.975Z,6.70
2018-07-16T03:41:10.346Z,7.03
2018-07-16T03:43:38.722Z,7.50
2018-07-16T03:46:07.120Z,6.77
2018-07-16T03:48:35.495Z,7.40
2018-07-16T03:51:03.843Z,7.03
2018-07-16T03:53:32.208Z,6.97
2018-07-16T03:56:00.580Z,7.20
2018-07-16T03:58:29.017Z,7.00
2018-07-16T04:00:57.370Z,7.10
2018-07-16T04:03:25.985Z,7.03
2018-07-16T04:05:54.356Z,6.83
2018-07-16T04:08:22.680Z,7.40
2018-07-16T04:10:51.087Z,6.87
2018-07-16T04:13:19.465Z,7.23
2018-07-16T04:15:47.842Z,7.20
2018-07-16T04:18:19.135Z,7.17
2018-07-16T04:20:48.025Z,7.27
2018-07-16T04:23:16.662Z,6.87
2018-07-16T04:25:44.991Z,7.03
2018-07-16T04:28:13.377Z,7.23
2018-07-16T04:30:41.813Z,7.80
2018-07-16T04:33:10.444Z,7.23
2018-07-16T04:35:38.818Z,7.67
2018-07-16T04:38:07.322Z,7.50
2018-07-16T04:40:35.758Z,8.00
2018-07-16T04:43:04.111Z,8.27
2018-07-16T04:45:32.602Z,7.80
2018-07-16T04:48:00.973Z,8.20
2018-07-16T04:50:29.371Z,7.40
2018-07-16T04:52:57.770Z,7.67
2018-07-16T04:55:26.178Z,7.63
2018-07-16T04:57:54.578Z,7.80
2018-07-16T05:00:23.281Z,7.47
2018-07-16T05:02:51.711Z,7.60
2018-07-16T05:05:20.082Z,7.60
2018-07-16T05:07:48.471Z,8.23
2018-07-16T05:10:16.935Z,7.63
2018-07-16T05:12:45.388Z,7.80
2018-07-16T05:15:13.815Z,8.00
2018-07-16T05:17:42.264Z,7.50
2018-07-16T05:20:10.683Z,7.80
2018-07-16T05:22:39.068Z,7.40
2018-07-16T05:25:07.431Z,8.20
2018-07-16T05:27:35.842Z,8.10
2018-07-16T05:30:04.207Z,8.03
2018-07-16T05:32:32.748Z,7.47
2018-07-16T05:35:01.037Z,7.83
2018-07-16T05:37:29.428Z,7.90
2018-07-16T05:39:57.794Z,7.70
2018-07-16T05:42:26.168Z,7.87
2018-07-16T05:44:54.554Z,7.83
2018-07-16T05:47:23.019Z,7.97
2018-07-16T05:49:51.486Z,7.93
2018-07-16T05:52:19.931Z,8.20
2018-07-16T05:54:48.363Z,8.00
2018-07-16T05:57:16.800Z,8.23
2018-07-16T05:59:45.298Z,6.87
2018-07-16T06:02:13.662Z,6.87
2018-07-16T06:04:42.075Z,6.93
2018-07-16T06:07:10.500Z,7.27
2018-07-16T06:09:39.066Z,8.67
2018-07-16T06:12:07.553Z,8.10
2018-07-16T06:14:36.167Z,7.20
2018-07-16T06:17:04.521Z,8.27
2018-07-16T06:19:33.016Z,7.80
2018-07-16T06:22:01.856Z,7.27
2018-07-16T06:24:30.323Z,7.47
2018-07-16T06:26:58.786Z,7.73
2018-07-16T06:29:27.265Z,7.07
2018-07-16T06:31:55.660Z,7.77
2018-07-16T06:34:24.279Z,6.97
2018-07-16T06:36:52.691Z,6.37
2018-07-16T06:39:21.123Z,6.73
2018-07-16T06:41:49.636Z,6.53
2018-07-16T06:44:18.060Z,6.77
2018-07-16T06:46:46.422Z,6.67
2018-07-16T06:49:14.948Z,7.13
2018-07-16T06:51:44.959Z,5.63
2018-07-16T06:54:13.419Z,6.60
2018-07-16T06:56:41.873Z,6.73
2018-07-16T06:59:10.267Z,6.13
2018-07-16T07:01:44.986Z,5.17
2018-07-16T07:04:13.394Z,5.63
2018-07-16T07:06:41.751Z,4.87
2018-07-16T07:09:10.152Z,4.80
2018-07-16T07:11:38.531Z,4.83
2018-07-16T07:14:10.978Z,4.77
2018-07-16T07:16:39.405Z,3.97
2018-07-16T07:19:07.787Z,3.33
2018-07-16T07:21:36.169Z,3.17
2018-07-16T07:24:04.579Z,3.50
2018-07-16T07:26:32.928Z,3.30
2018-07-16T07:29:03.323Z,4.00
2018-07-16T07:31:31.776Z,2.93
2018-07-16T07:34:00.107Z,2.97
2018-07-16T07:36:28.492Z,2.47
2018-07-16T07:38:57.278Z,2.93
2018-07-16T07:41:25.837Z,2.70
2018-07-16T07:43:54.229Z,2.47
2018-07-16T07:46:22.662Z,2.30
2018-07-16T07:48:51.030Z,2.90
2018-07-16T07:51:19.424Z,2.33
2018-07-16T07:53:47.781Z,2.47
2018-07-16T07:56:16.208Z,2.33
2018-07-16T07:58:44.658Z,2.30
2018-07-16T08:01:13.119Z,1.90
2018-07-16T08:03:41.511Z,2.43
2018-07-16T08:06:09.986Z,2.10
2018-07-16T08:08:38.467Z,2.43
2018-07-16T08:11:07.134Z,2.40
2018-07-16T08:13:37.783Z,2.43
2018-07-16T08:16:06.171Z,2.23
2018-07-16T08:18:34.622Z,2.10
2018-07-16T08:21:03.196Z,2.27
2018-07-16T08:23:31.567Z,2.17
2018-07-16T08:25:59.908Z,2.83
2018-07-16T08:28:28.414Z,2.50
2018-07-16T08:30:56.755Z,2.33
2018-07-16T08:33:25.154Z,2.40
2018-07-16T08:35:53.532Z,2.20
2018-07-16T08:38:21.877Z,2.20
2018-07-16T08:40:50.218Z,2.20
2018-07-16T08:43:18.531Z,2.37
2018-07-16T08:45:46.851Z,2.10
2018-07-16T08:48:15.158Z,2.20
2018-07-16T08:50:43.498Z,2.27
2018-07-16T08:53:11.818Z,1.87
2018-07-16T08:55:40.119Z,1.83
2018-07-16T08:58:08.449Z,1.80
2018-07-16T09:00:36.758Z,1.60
2018-07-16T09:03:05.122Z,1.50
2018-07-16T09:05:33.454Z,1.87
2018-07-16T09:08:01.770Z,1.90
2018-07-16T09:10:30.098Z,1.90
2018-07-16T09:12:58.428Z,1.80
2018-07-16T09:15:26.723Z,1.80
2018-07-16T09:17:55.056Z,2.10
2018-07-16T09:20:23.387Z,2.20
2018-07-16T09:22:51.672Z,1.53
2018-07-16T09:25:20.071Z,1.63
2018-07-16T09:27:48.376Z,1.90
2018-07-16T09:30:16.686Z,2.03
2018-07-16T09:32:45.113Z,1.53
2018-07-16T09:35:13.336Z,1.83
2018-07-16T09:37:41.671Z,1.70
2018-07-16T09:40:09.990Z,1.80
2018-07-16T09:42:38.304Z,1.90
2018-07-16T09:45:06.667Z,1.67
2018-07-16T09:47:34.983Z,1.73
2018-07-16T09:50:03.327Z,1.50
2018-07-16T09:52:31.627Z,2.00
2018-07-16T09:54:59.927Z,1.40
2018-07-16T09:57:28.243Z,1.90
2018-07-16T09:59:56.551Z,1.70
2018-07-16T10:02:24.851Z,2.20
2018-07-16T10:04:53.166Z,1.80
2018-07-16T10:07:21.484Z,1.90
2018-07-16T10:09:49.801Z,1.60
2018-07-16T10:12:18.118Z,1.53
2018-07-16T10:14:46.426Z,1.70
2018-07-16T10:17:15.126Z,1.40
2018-07-16T10:19:43.396Z,1.57
2018-07-16T10:22:11.723Z,1.60
2018-07-16T10:24:40.085Z,1.67
2018-07-16T10:27:08.391Z,1.40
2018-07-16T10:29:36.735Z,1.40
2018-07-16T10:32:05.082Z,1.67
2018-07-16T10:34:33.414Z,1.37
2018-07-16T10:37:01.735Z,1.50
2018-07-16T10:39:30.214Z,1.30
2018-07-16T10:41:58.436Z,1.83
2018-07-16T10:44:26.748Z,1.37
2018-07-16T10:46:55.098Z,1.70
2018-07-16T10:49:23.414Z,1.77
2018-07-16T10:51:51.766Z,1.57
2018-07-16T10:54:20.090Z,1.80
2018-07-16T10:56:48.406Z,1.70
2018-07-16T10:59:16.747Z,2.00
2018-07-16T11:01:45.063Z,2.03
2018-07-16T11:04:13.400Z,1.90
2018-07-16T11:06:41.707Z,1.70
2018-07-16T11:09:10.037Z,2.10
2018-07-16T11:11:38.406Z,2.13
2018-07-16T11:14:06.703Z,2.00
2018-07-16T11:16:35.039Z,2.10
2018-07-16T11:19:03.368Z,2.17
2018-07-16T11:21:31.706Z,2.17
2018-07-16T11:24:00.060Z,2.40
2018-07-16T11:26:28.416Z,2.20
2018-07-16T11:28:56.721Z,2.30
2018-07-16T11:31:25.374Z,2.23
2018-07-16T11:33:53.742Z,1.90
2018-07-16T11:36:22.078Z,2.40
2018-07-16T11:38:50.409Z,2.10
2018-07-16T11:41:18.694Z,2.00
2018-07-16T11:43:47.009Z,2.70
2018-07-16T11:46:15.388Z,2.30
2018-07-16T11:48:43.643Z,2.50
2018-07-16T11:51:11.957Z,2.67
2018-07-16T11:53:40.275Z,2.37
2018-07-16T11:56:09.074Z,2.20
2018-07-16T11:58:37.498Z,2.07
2018-07-16T12:01:05.851Z,2.37
2018-07-16T12:03:34.209Z,2.27
2018-07-16T12:06:06.782Z,2.47
2018-07-16T12:08:35.107Z,2.50
2018-07-16T12:11:03.416Z,2.47
2018-07-16T12:13:31.766Z,2.80
2018-07-16T12:16:00.188Z,2.67
2018-07-16T12:18:28.524Z,3.10
2018-07-16T12:20:56.839Z,3.27
2018-07-16T12:23:25.158Z,3.23
2018-07-16T12:25:53.555Z,3.10
2018-07-16T12:28:23.255Z,2.53
2018-07-16T12:30:51.563Z,2.60
2018-07-16T12:33:19.930Z,2.30
2018-07-16T12:35:48.235Z,2.50
2018-07-16T12:38:16.576Z,2.80
2018-07-16T12:40:44.953Z,2.80
2018-07-16T12:43:13.312Z,2.70
2018-07-16T12:45:41.595Z,3.13
2018-07-16T12:48:09.937Z,2.43
2018-07-16T12:50:38.248Z,3.17
2018-07-16T12:53:08.144Z,3.30
2018-07-16T12:55:36.551Z,2.60
2018-07-16T12:58:05.268Z,2.87
2018-07-16T13:00:33.920Z,2.80
2018-07-16T13:03:02.895Z,2.60
2018-07-16T13:05:31.323Z,2.87
2018-07-16T13:07:59.686Z,3.63
2018-07-16T13:10:28.034Z,2.30
2018-07-16T13:12:56.468Z,2.87
2018-07-16T13:15:26.068Z,2.57
2018-07-16T13:17:54.482Z,2.57
2018-07-16T13:20:23.514Z,2.70
2018-07-16T13:22:51.880Z,2.07
2018-07-16T13:25:20.215Z,2.33
2018-07-16T13:27:48.522Z,2.60
2018-07-16T13:30:16.886Z,3.17
2018-07-16T13:32:45.241Z,3.10
2018-07-16T13:35:13.580Z,2.83
2018-07-16T13:37:42.485Z,3.27
2018-07-16T13:40:10.889Z,3.03
2018-07-16T13:42:39.194Z,3.43
2018-07-16T13:45:09.974Z,3.40
2018-07-16T13:50:32.169Z,3.10
2018-07-16T13:53:00.465Z,3.17
2018-07-16T13:55:30.050Z,3.10
2018-07-16T13:57:58.420Z,3.30
2018-07-16T14:00:27.693Z,4.00
2018-07-16T14:02:55.998Z,3.47
2018-07-16T14:05:24.349Z,3.70
2018-07-16T14:07:52.730Z,4.30
2018-07-16T14:10:21.061Z,3.53
2018-07-16T14:12:49.834Z,4.57
2018-07-16T14:15:18.174Z,4.00
2018-07-16T14:17:46.485Z,3.33
2018-07-16T14:20:15.376Z,3.47
2018-07-16T14:22:43.811Z,3.17
2018-07-16T14:25:12.221Z,2.93
2018-07-16T14:27:40.622Z,3.20
2018-07-16T14:30:09.226Z,3.30
2018-07-16T14:32:37.595Z,3.00
2018-07-16T14:35:06.250Z,3.33
2018-07-16T14:37:34.756Z,3.90
2018-07-16T14:40:03.389Z,2.97
2018-07-16T14:42:32.243Z,3.80
2018-07-16T14:45:00.687Z,3.30
2018-07-16T14:47:29.459Z,3.60
2018-07-16T14:49:57.905Z,3.80
2018-07-16T14:52:26.180Z,3.30
2018-07-16T14:54:54.892Z,3.20
2018-07-16T14:57:23.255Z,3.07
2018-07-16T14:59:51.622Z,2.83
2018-07-16T15:02:19.920Z,3.23
2018-07-16T15:04:48.281Z,3.10
2018-07-16T15:07:16.613Z,2.60
2018-07-16T15:09:44.970Z,3.43
2018-07-16T15:12:13.371Z,2.70
2018-07-16T15:14:41.765Z,2.40
2018-07-16T15:17:10.113Z,2.77
2018-07-16T15:19:39.765Z,2.50
2018-07-16T15:22:08.461Z,2.67
2018-07-16T15:24:36.935Z,3.10
2018-07-16T15:27:05.453Z,3.30
2018-07-16T15:29:33.933Z,3.20
2018-07-16T15:32:02.431Z,3.10
2018-07-16T15:34:30.829Z,2.80
2018-07-16T15:36:59.144Z,2.60
2018-07-16T15:39:27.514Z,2.70
2018-07-16T15:41:55.874Z,3.03
2018-07-16T15:44:24.239Z,3.03
2018-07-16T15:46:52.619Z,3.57
2018-07-16T15:49:21.026Z,5.67
2018-07-16T15:51:49.364Z,12.43
2018-07-16T15:54:17.736Z,14.60
2018-07-16T15:56:46.438Z,68.27
2018-07-16T15:59:15.660Z,31.63
2018-07-16T16:01:44.054Z,30.67
2018-07-16T16:04:24.326Z,41.87
2018-07-16T16:06:53.981Z,69.10
2018-07-16T16:09:22.377Z,40.30
2018-07-16T16:11:50.752Z,24.80
2018-07-16T16:14:19.159Z,45.70
2018-07-16T16:16:47.361Z,82.43
2018-07-16T16:19:15.452Z,64.13
2018-07-16T16:21:43.558Z,69.00
2018-07-16T16:24:11.645Z,66.83
2018-07-16T16:26:39.823Z,34.30
2018-07-16T16:29:07.940Z,87.53
2018-07-16T16:31:36.076Z,45.57
2018-07-16T16:34:04.153Z,47.50
2018-07-16T16:36:40.796Z,59.40
2018-07-16T16:39:09.723Z,56.40
2018-07-16T16:41:38.271Z,22.63
2018-07-16T16:44:06.591Z,44.57
2018-07-16T16:46:36.182Z,48.93
2018-07-16T16:49:04.628Z,19.53
2018-07-16T16:51:32.913Z,29.30
2018-07-16T16:54:01.757Z,22.57
2018-07-16T16:56:30.288Z,39.13
2018-07-16T16:58:58.776Z,24.13
2018-07-16T17:01:27.175Z,27.00
2018-07-16T17:03:55.892Z,13.47
2018-07-16T17:06:24.539Z,18.50
2018-07-16T17:08:53.154Z,7.00
2018-07-16T17:11:21.631Z,4.57
2018-07-16T17:13:50.059Z,13.17
2018-07-16T17:16:18.485Z,15.73
2018-07-16T17:18:46.890Z,6.67
2018-07-16T17:21:15.314Z,12.43
2018-07-16T17:23:44.402Z,8.50
2018-07-16T17:26:12.737Z,7.57
2018-07-16T17:28:42.312Z,7.83
2018-07-16T17:31:10.658Z,5.70
2018-07-16T17:33:38.961Z,3.67
2018-07-16T17:36:07.392Z,4.77
2018-07-16T17:38:36.231Z,5.60
2018-07-16T17:41:04.587Z,5.23
2018-07-16T17:43:33.005Z,4.40
2018-07-16T17:46:01.363Z,4.00
2018-07-16T17:48:29.803Z,3.50
2018-07-16T17:50:58.156Z,4.37
2018-07-16T17:53:26.561Z,3.90
2018-07-16T17:55:54.956Z,4.83
2018-07-16T17:58:23.311Z,3.83
2018-07-16T18:00:51.709Z,4.03
2018-07-16T18:03:20.177Z,4.07
2018-07-16T18:05:48.728Z,3.40
2018-07-16T18:08:17.174Z,4.53
2018-07-16T18:10:45.596Z,4.00
2018-07-16T18:13:20.504Z,3.67
2018-07-16T18:15:48.803Z,3.53
2018-07-16T18:18:17.224Z,4.20
2018-07-16T18:20:46.025Z,3.33
2018-07-16T18:23:14.458Z,3.47
2018-07-16T18:25:43.153Z,3.33
2018-07-16T18:28:12.763Z,3.70
2018-07-16T18:30:41.127Z,3.20
2018-07-16T18:33:09.483Z,3.60
2018-07-16T18:35:37.959Z,3.00
2018-07-16T18:38:06.204Z,3.40
2018-07-16T18:40:34.775Z,3.53
2018-07-16T18:43:03.142Z,3.20
2018-07-16T18:45:31.549Z,3.70
2018-07-16T18:47:59.935Z,3.47
2018-07-16T18:50:28.232Z,3.57
2018-07-16T18:52:56.586Z,3.50
2018-07-16T18:55:25.236Z,3.60
2018-07-16T18:57:53.594Z,3.20
2018-07-16T19:00:22.518Z,3.53
2018-07-16T19:02:50.888Z,3.50
2018-07-16T19:05:19.249Z,3.53
2018-07-16T19:07:47.619Z,3.73
2018-07-16T19:10:15.995Z,3.60
2018-07-16T19:12:44.391Z,3.27
2018-07-16T19:15:17.593Z,3.60
2018-07-16T19:17:45.948Z,4.00
2018-07-16T19:20:15.537Z,3.90
2018-07-16T19:22:43.863Z,4.00
2018-07-16T19:25:12.156Z,3.90
2018-07-16T19:27:40.555Z,3.60
2018-07-16T19:30:08.971Z,3.90
2018-07-16T19:32:37.300Z,3.50
2018-07-16T19:35:05.735Z,3.77
2018-07-16T19:37:34.503Z,3.97
2018-07-16T19:40:02.883Z,3.77
2018-07-16T19:42:31.200Z,3.60
2018-07-16T19:45:22.021Z,3.43
2018-07-16T19:47:51.332Z,3.73
2018-07-16T19:53:07.046Z,3.80
2018-07-16T19:55:36.958Z,3.60
2018-07-16T19:58:22.145Z,3.60
2018-07-16T20:00:54.049Z,4.27
2018-07-16T20:03:45.975Z,5.50
2018-07-16T20:06:15.512Z,5.17
2018-07-16T20:08:43.987Z,4.70
2018-07-16T20:11:12.356Z,5.30
2018-07-16T20:13:41.532Z,5.20
2018-07-16T20:16:09.932Z,4.43
2018-07-16T20:18:38.385Z,4.27
2018-07-16T20:21:07.084Z,4.70
2018-07-16T20:23:35.693Z,4.60
2018-07-16T20:26:04.216Z,4.17
2018-07-16T20:28:32.915Z,4.27
2018-07-16T20:31:01.496Z,3.67
2018-07-16T20:33:29.856Z,4.30
2018-07-16T20:35:58.271Z,3.87
2018-07-16T20:38:26.584Z,4.00
2018-07-16T20:40:54.917Z,3.97
2018-07-16T20:43:23.405Z,3.87
2018-07-16T20:45:52.006Z,3.87
2018-07-16T20:48:20.581Z,4.00
2018-07-16T20:50:48.925Z,4.17
2018-07-16T20:53:17.292Z,4.17
2018-07-16T20:55:45.630Z,4.40
2018-07-16T20:58:14.028Z,4.97
2018-07-16T21:00:42.363Z,4.67
2018-07-16T21:03:10.820Z,5.67
2018-07-16T21:05:39.138Z,5.70
2018-07-16T21:08:07.502Z,5.80
2018-07-16T21:10:36.961Z,5.40
2018-07-16T21:13:05.263Z,5.77
2018-07-16T21:15:33.609Z,5.57
2018-07-16T21:18:02.024Z,5.70
2018-07-16T21:20:30.393Z,5.40
2018-07-16T21:22:58.704Z,5.10
2018-07-16T21:25:27.374Z,5.33
2018-07-16T21:27:55.746Z,5.83
2018-07-16T21:30:25.327Z,5.87
2018-07-16T21:32:53.650Z,5.67
2018-07-16T21:35:27.278Z,6.03
2018-07-16T21:37:56.223Z,5.63
2018-07-16T21:40:25.317Z,5.93
2018-07-16T21:42:54.047Z,5.87
2018-07-16T21:45:22.469Z,6.87
2018-07-16T21:47:50.850Z,5.90
2018-07-16T21:50:19.224Z,6.80
2018-07-16T21:52:47.595Z,7.67
2018-07-16T21:55:15.951Z,7.67
2018-07-16T21:57:44.306Z,7.50
2018-07-16T22:00:23.774Z,7.10
2018-07-16T22:02:52.148Z,6.17
2018-07-16T22:05:20.539Z,6.90
2018-07-16T22:07:48.890Z,6.50
2018-07-16T22:10:17.361Z,5.43
2018-07-16T22:12:45.734Z,5.87
2018-07-16T22:15:31.436Z,5.00
2018-07-16T22:17:59.834Z,4.50
2018-07-16T22:20:28.470Z,3.83
2018-07-16T22:22:57.128Z,4.00
2018-07-16T22:25:26.034Z,3.70
2018-07-16T22:27:54.497Z,3.90
2018-07-16T22:30:22.942Z,3.97
2018-07-16T22:32:51.279Z,3.53
2018-07-16T22:35:19.696Z,3.57
2018-07-16T22:37:48.081Z,3.60
2018-07-16T22:40:16.561Z,3.33
2018-07-16T22:42:44.955Z,3.83
2018-07-16T22:45:13.374Z,3.37
2018-07-16T22:47:41.739Z,4.00
2018-07-16T22:50:10.843Z,3.47
2018-07-16T22:52:39.289Z,3.73
2018-07-16T22:55:07.731Z,3.40
2018-07-16T22:57:36.155Z,3.30
2018-07-16T23:00:05.358Z,3.10
2018-07-16T23:02:33.767Z,3.80
2018-07-16T23:05:02.115Z,3.47
2018-07-16T23:07:30.496Z,3.10
2018-07-16T23:09:58.848Z,3.60
2018-07-16T23:12:27.300Z,3.70
2018-07-16T23:14:55.727Z,3.50
2018-07-16T23:17:24.102Z,3.27
2018-07-16T23:19:52.431Z,3.50
2018-07-16T23:22:22.456Z,3.33
2018-07-16T23:24:50.844Z,4.30
2018-07-16T23:27:19.161Z,3.80
2018-07-16T23:29:47.545Z,3.87
2018-07-16T23:32:15.908Z,3.80
2018-07-16T23:34:44.263Z,4.10
2018-07-16T23:37:12.608Z,4.00
2018-07-16T23:39:40.946Z,4.20
2018-07-16T23:42:09.338Z,4.47
2018-07-16T23:44:37.696Z,4.63
2018-07-16T23:47:06.053Z,4.27
2018-07-16T23:49:34.437Z,4.53
2018-07-16T23:52:02.827Z,4.63
2018-07-16T23:54:31.178Z,4.20
2018-07-16T23:56:59.565Z,4.67
2018-07-16T23:59:27.925Z,4.40
